Time;durP1;ratioP1;P1;durP2;ratioP2;P2;SDS_P1;SDS_P2;PMS_P1;PMS_P2;Temp;Humidity;BMP_temperature;BMP_pressure;BME280_temperature;BME280_humidity;BME280_pressure;Samples;Min_cycle;Max_cycle;Signal;HPM_P1;HPM_P2
2023/08/26 00:00:19;;;;;;;22.40;16.57;;;18.70;99.90;;;;;;5074847;28;20563;-78
2023/08/26 00:02:45;;;;;;;23.03;16.63;;;18.70;99.90;;;;;;5074472;28;20195;-78
2023/08/26 00:05:10;;;;;;;21.13;16.27;;;18.70;99.90;;;;;;5075116;28;20689;-78
2023/08/26 00:07:36;;;;;;;17.97;16.07;;;18.70;99.90;;;;;;5074514;28;20587;-77
2023/08/26 00:10:02;;;;;;;21.20;16.93;;;18.70;99.90;;;;;;5074584;28;20542;-78
2023/08/26 00:12:27;;;;;;;21.73;16.53;;;18.60;99.90;;;;;;5074914;28;20194;-78
2023/08/26 00:14:53;;;;;;;22.30;17.93;;;18.70;99.90;;;;;;5074960;28;20179;-78
2023/08/26 00:17:18;;;;;;;21.87;17.37;;;18.70;99.90;;;;;;5074651;28;20685;-78
2023/08/26 00:19:44;;;;;;;20.53;16.53;;;18.60;99.90;;;;;;5074367;28;20171;-77
2023/08/26 00:22:10;;;;;;;19.80;17.47;;;18.60;99.90;;;;;;5072999;28;20206;-78
2023/08/26 00:24:36;;;;;;;22.43;17.07;;;18.60;99.90;;;;;;5074260;28;20209;-78
2023/08/26 00:27:02;;;;;;;23.20;17.07;;;18.60;99.90;;;;;;5073633;28;20170;-78
2023/08/26 00:29:28;;;;;;;21.13;17.57;;;18.60;99.90;;;;;;5074283;28;20191;-78
2023/08/26 00:31:53;;;;;;;24.40;16.43;;;18.50;99.90;;;;;;5072654;28;20183;-78
2023/08/26 00:34:19;;;;;;;20.47;15.57;;;18.50;99.90;;;;;;5074515;28;20228;-78
2023/08/26 00:36:45;;;;;;;23.90;16.27;;;18.60;99.90;;;;;;5073238;28;20227;-78
2023/08/26 00:39:10;;;;;;;18.70;15.80;;;18.40;99.90;;;;;;5074375;28;20225;-78
2023/08/26 00:41:36;;;;;;;18.80;14.80;;;18.60;99.90;;;;;;5074268;28;20199;-77
2023/08/26 00:44:01;;;;;;;18.93;14.47;;;18.50;99.90;;;;;;5076846;28;20205;-79
2023/08/26 00:46:28;;;;;;;18.40;14.30;;;18.50;99.90;;;;;;5078127;28;20633;-78
2023/08/26 00:48:54;;;;;;;18.20;13.37;;;18.50;99.90;;;;;;5078365;28;20189;-78
2023/08/26 00:51:20;;;;;;;15.40;13.43;;;18.50;99.90;;;;;;5076752;28;20266;-78
2023/08/26 00:53:47;;;;;;;16.47;13.23;;;18.40;99.90;;;;;;5076620;28;20274;-78
2023/08/26 00:56:13;;;;;;;17.33;12.13;;;18.30;99.90;;;;;;5077916;28;20167;-79
2023/08/26 00:58:40;;;;;;;15.43;12.60;;;18.30;99.90;;;;;;5076782;28;20261;-78
2023/08/26 01:01:06;;;;;;;21.07;13.40;;;18.30;99.90;;;;;;5078151;28;20187;-78
2023/08/26 01:03:32;;;;;;;18.90;13.07;;;18.20;99.90;;;;;;5076852;28;20175;-78
2023/08/26 01:05:58;;;;;;;20.00;13.93;;;18.10;99.90;;;;;;5077254;28;20175;-78
2023/08/26 01:08:24;;;;;;;17.00;13.10;;;18.40;99.90;;;;;;5077664;28;20179;-79
2023/08/26 01:10:58;;;;;;;18.90;13.27;;;18.20;99.90;;;;;;5077113;28;20174;-78
2023/08/26 01:13:32;;;;;;;16.30;12.43;;;18.20;99.90;;;;;;5077512;28;20165;-78
2023/08/26 01:15:59;;;;;;;16.67;13.13;;;18.20;99.90;;;;;;5077844;28;20162;-78
2023/08/26 01:18:24;;;;;;;17.40;13.33;;;18.20;99.90;;;;;;5077446;28;20177;-78
2023/08/26 01:20:50;;;;;;;21.13;13.10;;;18.20;99.90;;;;;;5077337;28;20305;-78
2023/08/26 01:23:21;;;;;;;15.17;12.60;;;18.20;99.90;;;;;;5077059;28;20175;-77
2023/08/26 01:25:47;;;;;;;18.07;13.33;;;18.20;99.90;;;;;;5076998;28;20588;-78
2023/08/26 01:28:13;;;;;;;17.27;12.43;;;18.20;99.90;;;;;;5077699;28;20187;-78
2023/08/26 01:30:39;;;;;;;16.30;12.93;;;18.20;99.90;;;;;;5077768;28;20650;-78
2023/08/26 01:33:16;;;;;;;18.77;13.63;;;18.20;99.90;;;;;;5076963;28;20696;-78
2023/08/26 01:35:44;;;;;;;17.73;13.73;;;18.00;99.90;;;;;;5077466;28;20531;-79
2023/08/26 01:38:11;;;;;;;16.47;12.40;;;18.10;99.90;;;;;;5077576;28;20175;-78
2023/08/26 01:40:43;;;;;;;16.00;13.27;;;18.20;99.90;;;;;;5076784;28;20340;-79
2023/08/26 01:43:09;;;;;;;20.23;13.87;;;18.10;99.90;;;;;;5077204;28;20191;-78
2023/08/26 01:45:34;;;;;;;18.00;13.87;;;18.10;99.90;;;;;;5076687;28;20230;-78
2023/08/26 01:48:00;;;;;;;19.67;13.90;;;18.10;99.90;;;;;;5077142;28;20240;-79
2023/08/26 01:50:26;;;;;;;10.67;7.40;;;18.00;99.90;;;;;;5080139;28;20647;-79
2023/08/26 01:52:51;;;;;;;7.50;4.70;;;17.90;99.90;;;;;;5083407;28;20213;-78
2023/08/26 01:55:17;;;;;;;9.30;3.67;;;17.70;99.90;;;;;;5079545;28;20266;-78
2023/08/26 01:57:42;;;;;;;5.97;3.10;;;17.50;99.90;;;;;;5075176;28;20174;-78
2023/08/26 02:00:08;;;;;;;5.90;2.50;;;17.50;99.90;;;;;;5076299;28;20179;-79
2023/08/26 02:02:34;;;;;;;8.70;2.40;;;17.30;99.90;;;;;;5076274;28;20199;-78
2023/08/26 02:04:59;;;;;;;3.47;1.80;;;17.10;99.90;;;;;;5076469;28;20209;-78
2023/08/26 02:07:25;;;;;;;3.53;1.37;;;17.10;99.90;;;;;;5077125;28;20178;-78
2023/08/26 02:09:50;;;;;;;4.37;1.27;;;17.00;99.90;;;;;;5076647;28;20178;-79
2023/08/26 02:12:16;;;;;;;4.07;1.40;;;16.80;99.90;;;;;;5074442;28;20197;-77
2023/08/26 02:14:41;;;;;;;6.83;1.90;;;16.80;61.30;;;;;;5075742;28;20175;-79
2023/08/26 02:17:07;;;;;;;4.90;1.60;;;16.70;99.90;;;;;;5076192;28;20651;-79
2023/08/26 02:19:33;;;;;;;5.93;1.43;;;16.70;99.90;;;;;;5076169;28;20198;-77
2023/08/26 02:22:00;;;;;;;7.20;1.70;;;16.50;99.90;;;;;;5075371;28;20705;-79
2023/08/26 02:24:26;;;;;;;5.57;1.60;;;16.40;1.00;;;;;;5075548;28;20191;-77
2023/08/26 02:26:51;;;;;;;4.67;1.57;;;16.40;1.00;;;;;;5075681;28;20220;-77
2023/08/26 02:29:17;;;;;;;8.17;1.30;;;16.30;1.00;;;;;;5075722;28;20198;-78
2023/08/26 02:31:42;;;;;;;5.43;1.50;;;16.30;1.00;;;;;;5074254;28;20241;-78
2023/08/26 02:34:08;;;;;;;2.83;1.30;;;16.20;1.00;;;;;;5076102;28;20170;-78
2023/08/26 02:36:33;;;;;;;4.67;1.83;;;16.20;1.00;;;;;;5076256;28;20253;-78
2023/08/26 02:38:59;;;;;;;8.77;2.00;;;16.20;1.00;;;;;;5075585;28;20179;-78
2023/08/26 02:41:24;;;;;;;4.37;1.60;;;16.20;99.90;;;;;;5075404;28;20206;-78
2023/08/26 02:43:50;;;;;;;6.63;2.00;;;16.20;1.00;;;;;;5075874;28;20171;-77
2023/08/26 02:46:15;;;;;;;3.57;1.90;;;16.00;39.40;;;;;;5073993;28;20181;-77
2023/08/26 02:48:41;;;;;;;7.37;2.00;;;16.00;1.00;;;;;;5074888;28;20245;-78
2023/08/26 02:51:06;;;;;;;5.63;1.77;;;16.10;1.00;;;;;;5075384;28;20237;-78
2023/08/26 02:53:32;;;;;;;7.87;2.33;;;15.90;1.00;;;;;;5074467;28;20221;-77
2023/08/26 02:55:58;;;;;;;6.07;1.70;;;15.90;1.00;;;;;;5075293;28;20266;-78
2023/08/26 02:58:24;;;;;;;7.10;2.47;;;15.90;1.00;;;;;;5075051;28;20178;-78
2023/08/26 03:00:50;;;;;;;6.23;2.10;;;15.80;1.00;;;;;;5075354;28;20167;-77
2023/08/26 03:03:16;;;;;;;7.70;2.37;;;15.70;99.90;;;;;;5075581;28;20175;-78
2023/08/26 03:05:41;;;;;;;8.10;1.93;;;15.70;1.00;;;;;;5074583;28;20557;-78
2023/08/26 03:08:07;;;;;;;6.20;1.70;;;15.70;99.90;;;;;;5075283;28;20265;-78
2023/08/26 03:10:33;;;;;;;2.93;1.63;;;15.80;99.90;;;;;;5075428;28;20252;-78
2023/08/26 03:12:59;;;;;;;5.30;1.80;;;15.60;99.90;;;;;;5074253;28;20741;-78
2023/08/26 03:15:28;;;;;;;3.53;1.97;;;15.60;99.90;;;;;;5075468;28;20171;-78
2023/08/26 03:17:54;;;;;;;9.30;2.00;;;15.50;1.00;;;;;;5074228;28;20619;-78
2023/08/26 03:20:20;;;;;;;3.63;1.90;;;15.50;1.00;;;;;;5073750;28;20257;-78
2023/08/26 03:22:45;;;;;;;8.30;2.37;;;15.50;1.00;;;;;;5074568;28;20244;-78
2023/08/26 03:25:11;;;;;;;2.50;1.57;;;15.50;1.00;;;;;;5075297;28;20215;-77
2023/08/26 03:27:37;;;;;;;6.70;2.10;;;15.50;1.00;;;;;;5074680;28;20169;-78
2023/08/26 03:30:03;;;;;;;6.63;1.90;;;15.60;1.00;;;;;;5075247;28;20179;-78
2023/08/26 03:32:28;;;;;;;4.23;1.77;;;15.40;1.00;;;;;;5075258;28;20187;-78
2023/08/26 03:34:54;;;;;;;5.33;1.53;;;15.40;1.00;;;;;;5074793;28;20175;-77
2023/08/26 03:37:19;;;;;;;7.43;2.00;;;15.30;1.00;;;;;;5074516;28;20175;-78
2023/08/26 03:39:45;;;;;;;7.67;1.87;;;15.30;1.00;;;;;;5073791;28;20214;-78
2023/08/26 03:42:10;;;;;;;8.73;1.70;;;15.30;1.00;;;;;;5074783;28;20693;-78
2023/08/26 03:44:36;;;;;;;5.03;1.60;;;15.30;1.00;;;;;;5075200;28;20375;-78
2023/08/26 03:47:02;;;;;;;6.07;1.67;;;15.20;1.00;;;;;;5075238;28;20173;-78
2023/08/26 03:49:28;;;;;;;4.23;1.80;;;15.20;1.00;;;;;;5074376;28;20167;-78
2023/08/26 03:51:53;;;;;;;5.77;2.07;;;15.20;1.00;;;;;;5075670;28;20213;-78
2023/08/26 03:54:19;;;;;;;4.73;1.93;;;15.20;1.00;;;;;;5079793;28;20171;-77
2023/08/26 03:56:44;;;;;;;4.27;1.47;;;15.20;5.60;;;;;;5078214;28;20175;-78
2023/08/26 03:59:10;;;;;;;4.43;2.00;;;15.10;9.70;;;;;;5076078;28;20518;-78
2023/08/26 04:01:35;;;;;;;9.20;2.20;;;15.10;1.00;;;;;;5080551;28;20201;-77
2023/08/26 04:04:02;;;;;;;5.57;1.80;;;15.00;1.00;;;;;;5075593;28;20205;-78
2023/08/26 04:06:27;;;;;;;8.47;2.70;;;15.10;12.00;;;;;;5074544;28;20178;-78
2023/08/26 04:08:53;;;;;;;3.67;2.00;;;15.00;99.90;;;;;;5074621;28;20197;-79
2023/08/26 04:11:19;;;;;;;6.50;2.10;;;15.00;99.90;;;;;;5073536;28;20715;-77
2023/08/26 04:13:47;;;;;;;3.93;2.20;;;15.00;99.90;;;;;;5076265;28;20189;-78
2023/08/26 04:16:15;;;;;;;4.63;2.03;;;15.00;99.90;;;;;;5076209;28;20163;-78
2023/08/26 04:18:42;;;;;;;7.77;2.53;;;14.90;99.90;;;;;;5078687;28;20190;-77
2023/08/26 04:21:08;;;;;;;5.50;2.50;;;14.90;99.90;;;;;;5077306;28;20203;-78
2023/08/26 04:23:34;;;;;;;7.30;2.40;;;14.80;99.90;;;;;;5080794;28;20160;-81
2023/08/26 04:26:00;;;;;;;5.30;2.37;;;14.90;99.90;;;;;;5078276;28;20205;-80
2023/08/26 04:28:26;;;;;;;9.43;2.43;;;14.80;99.90;;;;;;5077939;28;20217;-80
2023/08/26 04:30:52;;;;;;;5.63;2.40;;;14.80;99.90;;;;;;5078872;28;20182;-79
2023/08/26 04:33:18;;;;;;;5.27;1.97;;;14.70;99.90;;;;;;5078193;28;20258;-78
2023/08/26 04:35:44;;;;;;;8.47;2.10;;;14.70;99.90;;;;;;5078108;28;20201;-79
2023/08/26 04:38:10;;;;;;;7.00;2.20;;;14.60;99.90;;;;;;5079984;28;20592;-79
2023/08/26 04:40:35;;;;;;;4.67;2.17;;;14.60;99.90;;;;;;5080937;28;20635;-79
2023/08/26 04:43:03;;;;;;;7.40;2.60;;;14.60;99.90;;;;;;5079031;28;20270;-77
2023/08/26 04:45:29;;;;;;;5.07;2.47;;;14.60;99.90;;;;;;5076717;28;20290;-78
2023/08/26 04:47:55;;;;;;;6.93;3.00;;;14.60;99.90;;;;;;5078066;28;20203;-78
2023/08/26 04:50:20;;;;;;;8.57;2.43;;;14.50;99.90;;;;;;5078828;28;20167;-78
2023/08/26 04:52:46;;;;;;;5.73;2.17;;;14.60;99.90;;;;;;5080228;28;20278;-80
2023/08/26 04:55:12;;;;;;;6.53;2.23;;;14.60;99.90;;;;;;5082613;28;20192;-80
2023/08/26 04:57:37;;;;;;;5.60;2.23;;;14.60;99.90;;;;;;5080844;28;20173;-80
2023/08/26 05:00:08;;;;;;;6.03;2.40;;;14.60;99.90;;;;;;5079169;28;20706;-80
2023/08/26 05:02:34;;;;;;;5.77;2.40;;;14.60;99.90;;;;;;5082026;28;20197;-80
2023/08/26 05:04:59;;;;;;;7.83;2.40;;;14.60;99.90;;;;;;5081134;28;20293;-80
2023/08/26 05:07:25;;;;;;;5.90;2.30;;;14.60;99.90;;;;;;5079959;28;20175;-80
2023/08/26 05:09:50;;;;;;;6.00;2.10;;;14.60;99.90;;;;;;5081978;28;20544;-80
2023/08/26 05:12:16;;;;;;;7.57;2.13;;;14.60;99.90;;;;;;5080918;28;20700;-80
2023/08/26 05:14:42;;;;;;;9.33;2.00;;;14.60;99.90;;;;;;5079231;28;20171;-77
2023/08/26 05:17:07;;;;;;;5.83;1.87;;;14.60;99.90;;;;;;5078242;28;20717;-77
2023/08/26 05:19:33;;;;;;;4.87;1.70;;;14.70;99.90;;;;;;5077534;28;20175;-78
2023/08/26 05:21:58;;;;;;;4.57;1.70;;;14.70;99.90;;;;;;5077448;28;20195;-80
2023/08/26 05:24:24;;;;;;;5.53;1.90;;;14.70;99.90;;;;;;5079389;28;20287;-78
2023/08/26 05:26:49;;;;;;;6.27;1.80;;;14.70;99.90;;;;;;5077626;28;20175;-77
2023/08/26 05:29:15;;;;;;;7.30;1.90;;;14.60;99.90;;;;;;5075572;28;20190;-77
2023/08/26 05:31:41;;;;;;;4.93;1.83;;;14.70;99.90;;;;;;5076735;28;20187;-77
2023/08/26 05:34:06;;;;;;;4.27;1.63;;;14.70;99.90;;;;;;5075845;28;20177;-77
2023/08/26 05:36:32;;;;;;;5.40;1.83;;;14.70;99.90;;;;;;5075586;28;20182;-76
2023/08/26 05:38:57;;;;;;;8.90;1.77;;;14.70;99.90;;;;;;5075916;28;20202;-76
2023/08/26 05:41:23;;;;;;;8.97;1.80;;;14.70;99.90;;;;;;5076473;28;20198;-76
2023/08/26 05:43:49;;;;;;;4.50;1.70;;;14.80;99.90;;;;;;5078831;28;20220;-78
2023/08/26 05:46:15;;;;;;;4.60;1.80;;;14.80;99.90;;;;;;5077633;28;20164;-76
2023/08/26 05:48:40;;;;;;;2.60;1.43;;;14.80;99.90;;;;;;5076197;28;20182;-78
2023/08/26 05:51:06;;;;;;;8.47;1.40;;;14.80;94.60;;;;;;5076807;28;20191;-76
2023/08/26 05:53:31;;;;;;;3.93;1.50;;;14.70;4.10;;;;;;5079166;28;20169;-77
2023/08/26 05:55:58;;;;;;;3.57;1.40;;;14.80;6.00;;;;;;5079962;28;20262;-78
2023/08/26 05:58:24;;;;;;;7.77;1.40;;;14.80;1.00;;;;;;5079541;28;20167;-78
2023/08/26 06:00:50;;;;;;;9.40;1.40;;;14.90;1.00;;;;;;5076667;28;20258;-75
2023/08/26 06:03:15;;;;;;;5.20;1.50;;;14.90;1.00;;;;;;5076224;28;20171;-79
2023/08/26 06:05:41;;;;;;;7.80;1.20;;;14.90;1.00;;;;;;5044093;28;20207;-78
2023/08/26 06:08:06;;;;;;;7.20;1.60;;;14.90;1.00;;;;;;5039261;28;20168;-78
2023/08/26 06:10:32;;;;;;;7.60;1.20;;;14.90;1.00;;;;;;5041381;28;20204;-78
2023/08/26 06:12:58;;;;;;;5.30;1.37;;;15.00;1.00;;;;;;5038543;28;20553;-79
2023/08/26 06:15:23;;;;;;;5.00;1.40;;;15.00;1.00;;;;;;5035780;28;20169;-76
2023/08/26 06:17:49;;;;;;;4.27;1.57;;;15.10;1.00;;;;;;5037521;28;20222;-78
2023/08/26 06:20:15;;;;;;;4.17;1.43;;;15.10;1.00;;;;;;5037190;28;20188;-76
2023/08/26 06:22:42;;;;;;;2.23;1.00;;;15.10;99.90;;;;;;5035570;28;20279;-76
2023/08/26 06:25:07;;;;;;;4.73;1.20;;;15.20;99.90;;;;;;5035373;28;20629;-77
2023/08/26 06:27:33;;;;;;;3.70;1.10;;;15.30;99.90;;;;;;5035439;28;20207;-77
2023/08/26 06:30:02;;;;;;;8.17;1.27;;;15.30;1.00;;;;;;5035525;28;20195;-77
2023/08/26 06:32:28;;;;;;;3.10;1.00;;;15.30;99.90;;;;;;5035881;28;20216;-77
2023/08/26 06:34:54;;;;;;;3.43;1.20;;;15.40;99.90;;;;;;5035552;28;20259;-76
2023/08/26 06:37:19;;;;;;;3.63;1.00;;;15.40;99.90;;;;;;5035828;28;20179;-76
2023/08/26 06:39:45;;;;;;;4.97;1.20;;;15.40;99.90;;;;;;5035302;28;20183;-77
2023/08/26 06:42:11;;;;;;;4.33;1.43;;;15.40;99.90;;;;;;5035558;28;20274;-77
2023/08/26 06:44:36;;;;;;;5.60;1.40;;;15.40;99.90;;;;;;5035463;28;20223;-77
2023/08/26 06:47:02;;;;;;;5.00;1.27;;;15.50;99.90;;;;;;5034977;28;20664;-77
2023/08/26 06:49:28;;;;;;;2.33;1.20;;;15.60;99.90;;;;;;5036051;28;20180;-76
2023/08/26 06:51:53;;;;;;;6.40;1.50;;;15.60;99.90;;;;;;5035000;28;20192;-77
2023/08/26 06:54:19;;;;;;;6.10;1.13;;;15.80;99.90;;;;;;5035916;28;20187;-77
2023/08/26 06:56:44;;;;;;;5.13;1.10;;;15.70;99.90;;;;;;5035036;28;20184;-78
2023/08/26 06:59:10;;;;;;;3.43;1.30;;;15.70;1.00;;;;;;5034788;28;20255;-76
2023/08/26 07:01:36;;;;;;;2.90;1.33;;;15.80;99.90;;;;;;5033462;28;20196;-77
2023/08/26 07:04:08;;;;;;;5.57;1.30;;;15.80;1.00;;;;;;5033797;28;20168;-77
2023/08/26 07:06:35;;;;;;;6.00;1.30;;;15.80;44.40;;;;;;5035177;28;20173;-77
2023/08/26 07:09:01;;;;;;;5.57;1.10;;;15.90;1.00;;;;;;5034880;28;20614;-77
2023/08/26 07:11:27;;;;;;;3.90;1.10;;;15.90;1.00;;;;;;5035045;28;20196;-76
2023/08/26 07:13:52;;;;;;;3.80;1.47;;;16.00;99.90;;;;;;5034232;28;20172;-76
2023/08/26 07:16:18;;;;;;;3.17;1.23;;;16.00;42.30;;;;;;5034321;28;20192;-77
2023/08/26 07:18:43;;;;;;;4.80;1.23;;;16.00;1.00;;;;;;5034663;28;20234;-77
2023/08/26 07:21:09;;;;;;;3.77;1.50;;;16.00;1.00;;;;;;5034029;28;20196;-78
2023/08/26 07:23:35;;;;;;;3.17;1.03;;;16.10;1.00;;;;;;5034144;28;20160;-79
2023/08/26 07:26:01;;;;;;;5.17;1.67;;;16.10;99.90;;;;;;5033779;28;20208;-77
2023/08/26 07:28:26;;;;;;;6.20;1.30;;;16.10;32.70;;;;;;5033737;28;20628;-78
2023/08/26 07:30:52;;;;;;;8.53;1.30;;;16.10;1.00;;;;;;5033950;28;20172;-78
2023/08/26 07:33:18;;;;;;;3.37;1.20;;;16.20;99.90;;;;;;5035337;28;20218;-78
2023/08/26 07:35:43;;;;;;;4.07;1.20;;;16.20;1.00;;;;;;5032415;28;20176;-78
2023/08/26 07:38:09;;;;;;;4.37;1.27;;;16.20;1.00;;;;;;5033620;28;20177;-77
2023/08/26 07:40:35;;;;;;;3.70;1.00;;;16.30;99.90;;;;;;5033364;28;20176;-77
2023/08/26 07:43:01;;;;;;;6.47;1.33;;;16.30;1.00;;;;;;5034298;28;20192;-80
2023/08/26 07:45:26;;;;;;;2.87;0.97;;;16.40;99.90;;;;;;5032622;28;20675;-79
2023/08/26 07:47:52;;;;;;;2.27;0.73;;;16.40;1.00;;;;;;5034830;28;20542;-79
2023/08/26 07:50:18;;;;;;;5.23;0.93;;;16.50;1.00;;;;;;5033530;28;20290;-79
2023/08/26 07:52:44;;;;;;;4.10;1.20;;;16.50;99.90;;;;;;5039579;28;20188;-79
2023/08/26 07:55:10;;;;;;;5.80;1.30;;;16.60;1.00;;;;;;5041022;28;20524;-79
2023/08/26 07:57:35;;;;;;;4.77;1.60;;;16.60;29.10;;;;;;5041670;28;20206;-78
2023/08/26 08:00:05;;;;;;;8.60;1.47;;;16.70;1.00;;;;;;5041485;28;20298;-77
2023/08/26 08:02:31;;;;;;;4.27;1.10;;;16.70;99.90;;;;;;5040986;28;20191;-79
2023/08/26 08:04:57;;;;;;;2.83;0.90;;;16.70;1.00;;;;;;5041458;28;20192;-78
2023/08/26 08:07:22;;;;;;;4.90;1.30;;;16.90;99.90;;;;;;5041274;28;20239;-79
2023/08/26 08:09:48;;;;;;;6.87;1.30;;;16.90;92.80;;;;;;5040873;28;20294;-78
2023/08/26 08:12:14;;;;;;;5.00;1.10;;;17.00;1.00;;;;;;5041093;28;20686;-79
2023/08/26 08:14:41;;;;;;;4.90;0.93;;;16.90;1.00;;;;;;5040437;28;20282;-79
2023/08/26 08:17:07;;;;;;;5.57;1.10;;;16.90;99.90;;;;;;5040751;28;20173;-79
2023/08/26 08:19:38;;;;;;;5.77;1.50;;;17.00;99.90;;;;;;5041376;28;20251;-78
2023/08/26 08:22:04;;;;;;;4.37;1.00;;;17.00;99.90;;;;;;5040889;28;20296;-79
2023/08/26 08:24:29;;;;;;;5.43;1.40;;;17.20;1.00;;;;;;5045510;28;20285;-78
2023/08/26 08:26:55;;;;;;;5.87;1.10;;;17.10;99.90;;;;;;5045870;28;20264;-78
2023/08/26 08:29:20;;;;;;;3.87;1.40;;;17.20;1.00;;;;;;5040732;28;20660;-78
2023/08/26 08:31:46;;;;;;;3.00;1.00;;;17.10;99.90;;;;;;5041405;28;20679;-79
2023/08/26 08:34:12;;;;;;;3.00;1.00;;;17.20;99.90;;;;;;5039511;28;20195;-79
2023/08/26 08:36:37;;;;;;;3.27;1.20;;;17.40;1.00;;;;;;5040676;28;20517;-78
2023/08/26 08:39:03;;;;;;;5.00;1.37;;;17.30;1.00;;;;;;5039314;28;20183;-78
2023/08/26 08:41:34;;;;;;;3.60;1.20;;;17.40;1.00;;;;;;5040352;28;20310;-79
2023/08/26 08:44:08;;;;;;;2.97;0.93;;;17.50;99.90;;;;;;5040267;28;20180;-78
2023/08/26 08:46:33;;;;;;;4.47;1.10;;;17.50;1.00;;;;;;5039323;28;20168;-79
2023/08/26 08:48:59;;;;;;;4.50;1.27;;;17.70;1.00;;;;;;5040140;28;20183;-78
2023/08/26 08:51:27;;;;;;;5.93;1.00;;;17.70;1.00;;;;;;5039892;28;20192;-78
2023/08/26 08:53:53;;;;;;;2.13;1.10;;;17.80;1.00;;;;;;5040412;28;20294;-78
2023/08/26 08:56:21;;;;;;;4.23;1.00;;;17.90;1.00;;;;;;5040314;28;20183;-79
2023/08/26 08:58:48;;;;;;;3.00;1.10;;;18.00;1.00;;;;;;5040334;28;20234;-78
2023/08/26 09:01:17;;;;;;;7.13;1.33;;;18.00;1.00;;;;;;5039246;28;20192;-77
2023/08/26 09:03:44;;;;;;;3.10;1.00;;;18.00;1.00;;;;;;5037113;28;20195;-78
2023/08/26 09:06:10;;;;;;;3.33;0.97;;;18.20;99.90;;;;;;5037241;28;20204;-78
2023/08/26 09:08:36;;;;;;;3.93;0.90;;;18.10;88.50;;;;;;5037654;28;20179;-78
2023/08/26 09:11:02;;;;;;;2.07;0.80;;;18.20;1.00;;;;;;5036552;28;20196;-79
2023/08/26 09:13:28;;;;;;;1.97;0.83;;;18.20;1.00;;;;;;5034984;28;20246;-78
2023/08/26 09:15:53;;;;;;;1.83;1.20;;;18.30;99.90;;;;;;5036690;28;20172;-78
2023/08/26 09:18:19;;;;;;;4.27;1.00;;;18.30;99.90;;;;;;5035616;28;20226;-77
2023/08/26 09:20:47;;;;;;;10.03;1.47;;;18.30;1.00;;;;;;5035829;28;20290;-77
2023/08/26 09:23:14;;;;;;;1.80;0.83;;;18.40;1.00;;;;;;5035555;28;20210;-77
2023/08/26 09:25:53;;;;;;;4.87;1.20;;;18.40;13.40;;;;;;5034294;28;20227;-77
2023/08/26 09:28:20;;;;;;;2.63;1.10;;;18.40;99.90;;;;;;5035850;28;20234;-77
2023/08/26 09:31:05;;;;;;;4.47;0.90;;;18.50;1.00;;;;;;5036022;28;20168;-78
2023/08/26 09:33:31;;;;;;;2.10;0.83;;;18.30;99.90;;;;;;5035737;28;20176;-78
2023/08/26 09:35:58;;;;;;;4.17;0.97;;;18.50;99.90;;;;;;5034222;28;20600;-78
2023/08/26 09:38:24;;;;;;;4.07;0.90;;;18.50;1.00;;;;;;5035684;28;20180;-78
2023/08/26 09:40:54;;;;;;;2.57;0.87;;;18.70;99.90;;;;;;5035715;28;20164;-78
2023/08/26 09:43:20;;;;;;;4.43;1.10;;;18.80;1.00;;;;;;5036124;28;20164;-78
2023/08/26 09:45:47;;;;;;;4.57;1.30;;;18.80;99.90;;;;;;5034935;28;20196;-78
2023/08/26 09:48:21;;;;;;;4.17;0.90;;;18.80;1.00;;;;;;5049293;28;20270;-78
2023/08/26 09:50:46;;;;;;;2.67;0.83;;;18.80;99.90;;;;;;5055870;28;20205;-78
2023/08/26 09:53:12;;;;;;;3.27;1.00;;;18.90;1.00;;;;;;5056097;28;20172;-78
2023/08/26 09:55:39;;;;;;;1.20;0.70;;;18.90;1.00;;;;;;5054611;28;20237;-78
2023/08/26 09:58:04;;;;;;;2.97;1.13;;;19.00;1.00;;;;;;5055871;28;20340;-78
2023/08/26 10:00:31;;;;;;;2.23;0.70;;;19.00;1.00;;;;;;5055339;28;20175;-78
2023/08/26 10:03:02;;;;;;;3.57;0.83;;;19.10;99.90;;;;;;5053910;28;20266;-78
2023/08/26 10:05:30;;;;;;;2.10;0.73;;;19.10;99.90;;;;;;5056371;28;20191;-78
2023/08/26 10:07:57;;;;;;;2.63;1.00;;;19.20;99.90;;;;;;5055890;28;20167;-78
2023/08/26 10:10:34;;;;;;;2.60;0.90;;;19.30;63.20;;;;;;5056323;28;20167;-78
2023/08/26 10:13:03;;;;;;;3.03;0.87;;;19.30;1.00;;;;;;5056338;28;20183;-79
2023/08/26 10:15:32;;;;;;;2.63;0.77;;;19.30;1.00;;;;;;5055941;28;20171;-78
2023/08/26 10:18:03;;;;;;;8.47;1.20;;;19.40;1.00;;;;;;5056511;28;20179;-78
2023/08/26 10:20:30;;;;;;;2.87;1.00;;;19.40;71.70;;;;;;5056182;28;20156;-78
2023/08/26 10:22:55;;;;;;;2.90;0.80;;;19.40;99.90;;;;;;5055373;28;20598;-78
2023/08/26 10:25:21;;;;;;;3.50;0.90;;;19.50;99.90;;;;;;5055146;28;20199;-78
2023/08/26 10:27:47;;;;;;;1.77;0.83;;;19.60;99.90;;;;;;5055449;28;20639;-78
2023/08/26 10:30:13;;;;;;;2.67;1.10;;;19.50;99.90;;;;;;5055645;28;20253;-78
2023/08/26 10:32:43;;;;;;;2.30;1.10;;;19.70;1.00;;;;;;5055769;28;20183;-78
2023/08/26 10:35:13;;;;;;;5.13;0.90;;;19.70;1.00;;;;;;5056155;28;20657;-78
2023/08/26 10:37:42;;;;;;;1.73;1.00;;;19.80;99.90;;;;;;5063751;28;20164;-78
2023/08/26 10:40:12;;;;;;;2.90;1.00;;;19.70;1.00;;;;;;5059673;28;20529;-78
2023/08/26 10:42:39;;;;;;;2.63;0.87;;;19.80;1.00;;;;;;5054179;28;20568;-78
2023/08/26 10:45:14;;;;;;;3.70;0.90;;;20.00;99.90;;;;;;5054552;28;20215;-78
2023/08/26 10:47:50;;;;;;;6.47;1.10;;;20.00;99.90;;;;;;5054197;28;20242;-77
2023/08/26 10:50:35;;;;;;;1.47;0.90;;;19.90;1.00;;;;;;5054241;28;20163;-78
2023/08/26 10:53:19;;;;;;;3.00;0.80;;;20.00;99.90;;;;;;5054839;28;20199;-78
2023/08/26 10:55:47;;;;;;;2.53;0.63;;;20.00;9.90;;;;;;5054508;28;20179;-78
2023/08/26 10:58:20;;;;;;;1.97;0.80;;;20.00;99.90;;;;;;5044229;28;20580;-79
2023/08/26 11:00:51;;;;;;;2.70;0.87;;;20.10;1.00;;;;;;5034351;28;20176;-79
2023/08/26 11:03:21;;;;;;;1.60;0.80;;;20.10;99.90;;;;;;5035423;28;20251;-79
2023/08/26 11:06:00;;;;;;;2.87;0.70;;;20.10;1.00;;;;;;5038058;28;20199;-78
2023/08/26 11:08:25;;;;;;;1.20;0.60;;;20.20;99.90;;;;;;5047432;28;20163;-78
2023/08/26 11:10:51;;;;;;;5.13;0.93;;;20.20;1.00;;;;;;5053247;28;20524;-79
2023/08/26 11:13:17;;;;;;;4.30;1.07;;;20.50;99.90;;;;;;5039420;28;20273;-78
2023/08/26 11:15:43;;;;;;;1.63;0.70;;;20.40;99.90;;;;;;5037709;28;20601;-78
2023/08/26 11:18:10;;;;;;;1.67;0.83;;;20.40;1.00;;;;;;5052121;28;20514;-79
2023/08/26 11:20:37;;;;;;;3.17;0.90;;;20.50;1.00;;;;;;5054767;28;20186;-78
2023/08/26 11:23:05;;;;;;;3.57;0.80;;;20.40;1.00;;;;;;5054185;28;20191;-79
2023/08/26 11:32:14;;;;;;;6.50;0.90;;;20.40;99.90;;;;;;5053767;28;20195;-78
2023/08/26 11:34:40;;;;;;;3.47;0.80;;;20.40;1.00;;;;;;5054186;28;20172;-79
2023/08/26 11:37:06;;;;;;;2.67;0.80;;;20.50;99.90;;;;;;5054420;28;20570;-79
2023/08/26 11:39:35;;;;;;;2.20;0.80;;;20.60;99.90;;;;;;5054695;28;20171;-79
2023/08/26 11:42:11;;;;;;;2.70;0.87;;;20.80;99.90;;;;;;5054191;28;20683;-78
2023/08/26 11:44:37;;;;;;;2.20;0.87;;;20.70;1.00;;;;;;5054780;28;20344;-79
2023/08/26 11:47:04;;;;;;;3.60;1.27;;;20.50;99.90;;;;;;5054450;28;20200;-77
2023/08/26 11:49:30;;;;;;;5.40;1.07;;;20.70;99.90;;;;;;5051809;28;20174;-78
2023/08/26 11:51:56;;;;;;;2.67;1.30;;;20.70;99.90;;;;;;5049316;28;20195;-79
2023/08/26 11:54:28;;;;;;;3.43;0.80;;;20.70;1.00;;;;;;5054047;28;20175;-77
2023/08/26 11:56:55;;;;;;;1.93;0.70;;;20.60;1.00;;;;;;5050584;28;20183;-79
2023/08/26 11:59:21;;;;;;;3.50;1.10;;;20.50;1.00;;;;;;5052530;28;20226;-78
2023/08/26 12:01:49;;;;;;;4.27;1.00;;;20.70;1.00;;;;;;5053423;28;20192;-78
2023/08/26 12:04:19;;;;;;;3.00;0.70;;;20.80;99.90;;;;;;5053695;28;20171;-78
2023/08/26 12:06:45;;;;;;;2.17;0.87;;;20.80;1.00;;;;;;5053639;28;20172;-78
2023/08/26 12:09:12;;;;;;;2.00;1.00;;;20.80;1.00;;;;;;5053926;28;20250;-78
2023/08/26 12:11:42;;;;;;;2.57;0.83;;;20.70;1.00;;;;;;5053847;28;20180;-79
2023/08/26 12:14:16;;;;;;;1.53;0.90;;;20.70;1.00;;;;;;5053735;28;20535;-78
2023/08/26 12:16:42;;;;;;;3.27;0.90;;;20.70;1.00;;;;;;5053524;28;20233;-78
2023/08/26 12:19:18;;;;;;;3.67;0.73;;;20.70;17.10;;;;;;5053695;28;20728;-78
2023/08/26 12:21:50;;;;;;;2.17;1.00;;;20.80;99.90;;;;;;5053597;28;20274;-79
2023/08/26 12:24:23;;;;;;;2.57;0.70;;;20.70;1.00;;;;;;5053736;28;20667;-78
2023/08/26 12:26:49;;;;;;;14.27;1.27;;;20.60;74.80;;;;;;5052245;28;20160;-79
2023/08/26 12:29:15;;;;;;;5.20;1.10;;;20.70;99.90;;;;;;5054023;28;20210;-78
2023/08/26 12:31:43;;;;;;;3.30;0.93;;;20.60;1.00;;;;;;5053980;28;20188;-78
2023/08/26 12:34:09;;;;;;;3.93;1.10;;;20.60;1.00;;;;;;5053717;28;20164;-79
2023/08/26 12:36:34;;;;;;;2.57;0.80;;;20.60;1.00;;;;;;5054342;28;20301;-79
2023/08/26 12:39:00;;;;;;;2.30;0.83;;;20.60;1.00;;;;;;5056842;28;20188;-78
2023/08/26 12:41:26;;;;;;;2.63;0.70;;;20.80;81.50;;;;;;5057670;28;20195;-79
2023/08/26 12:43:55;;;;;;;2.23;0.97;;;20.70;81.90;;;;;;5057611;28;20554;-78
2023/08/26 12:46:21;;;;;;;3.07;0.93;;;20.80;99.90;;;;;;5060202;28;20188;-79
2023/08/26 12:48:48;;;;;;;2.10;0.70;;;21.00;53.60;;;;;;5068167;28;20163;-79
2023/08/26 12:51:13;;;;;;;2.13;0.80;;;21.30;99.90;;;;;;5061400;28;20253;-79